sensor_id;sensor_type;location;lat;lon;timestamp;pressure;altitude;pressure_sealevel;temperature;humidity
64602;BME280;68371;42.630;23.192;2024-03-08T00:00:28;92273.47;;;3.55;100.00
64602;BME280;68371;42.630;23.192;2024-03-08T00:02:58;92268.44;;;3.59;100.00
64602;BME280;68371;42.630;23.192;2024-03-08T00:05:26;92251.72;;;3.51;100.00
64602;BME280;68371;42.630;23.192;2024-03-08T00:07:55;92279.09;;;3.71;100.00
64602;BME280;68371;42.630;23.192;2024-03-08T00:10:22;92274.94;;;3.70;100.00
64602;BME280;68371;42.630;23.192;2024-03-08T00:12:50;92275.41;;;3.72;100.00
64602;BME280;68371;42.630;23.192;2024-03-08T00:15:18;92276.78;;;3.70;100.00
64602;BME280;68371;42.630;23.192;2024-03-08T00:17:47;92269.91;;;3.74;100.00
64602;BME280;68371;42.630;23.192;2024-03-08T00:20:13;92271.28;;;3.71;100.00
64602;BME280;68371;42.630;23.192;2024-03-08T00:22:40;92251.78;;;3.60;100.00
64602;BME280;68371;42.630;23.192;2024-03-08T00:25:07;92266.56;;;3.73;100.00
64602;BME280;68371;42.630;23.192;2024-03-08T00:27:35;92268.50;;;3.68;100.00
64602;BME280;68371;42.630;23.192;2024-03-08T00:30:02;92266.00;;;3.63;100.00
64602;BME280;68371;42.630;23.192;2024-03-08T00:32:29;92270.91;;;3.64;100.00
64602;BME280;68371;42.630;23.192;2024-03-08T00:34:58;92273.69;;;3.68;100.00
64602;BME280;68371;42.630;23.192;2024-03-08T00:37:27;92266.44;;;3.78;100.00
64602;BME280;68371;42.630;23.192;2024-03-08T00:39:55;92269.44;;;3.72;100.00
64602;BME280;68371;42.630;23.192;2024-03-08T00:42:23;92257.41;;;3.53;100.00
64602;BME280;68371;42.630;23.192;2024-03-08T00:44:49;92264.72;;;3.51;100.00
64602;BME280;68371;42.630;23.192;2024-03-08T00:47:16;92260.50;;;3.41;100.00
64602;BME280;68371;42.630;23.192;2024-03-08T00:49:43;92253.81;;;3.27;100.00
64602;BME280;68371;42.630;23.192;2024-03-08T00:52:11;92254.91;;;3.48;100.00
64602;BME280;68371;42.630;23.192;2024-03-08T00:54:38;92251.53;;;3.48;100.00
64602;BME280;68371;42.630;23.192;2024-03-08T00:57:05;92230.16;;;3.28;100.00
64602;BME280;68371;42.630;23.192;2024-03-08T00:59:32;92246.53;;;3.51;100.00
64602;BME280;68371;42.630;23.192;2024-03-08T01:01:59;92252.22;;;3.53;100.00
64602;BME280;68371;42.630;23.192;2024-03-08T01:04:29;92246.34;;;3.48;100.00
64602;BME280;68371;42.630;23.192;2024-03-08T01:06:59;92209.28;;;3.33;100.00
64602;BME280;68371;42.630;23.192;2024-03-08T01:09:28;92238.56;;;3.48;100.00
64602;BME280;68371;42.630;23.192;2024-03-08T01:11:57;92246.41;;;3.56;100.00
64602;BME280;68371;42.630;23.192;2024-03-08T01:14:24;92247.81;;;3.63;100.00
64602;BME280;68371;42.630;23.192;2024-03-08T01:16:54;92241.81;;;3.53;100.00
64602;BME280;68371;42.630;23.192;2024-03-08T01:19:22;92243.72;;;3.61;100.00
64602;BME280;68371;42.630;23.192;2024-03-08T01:21:49;92243.06;;;3.56;100.00
64602;BME280;68371;42.630;23.192;2024-03-08T01:24:16;92234.03;;;3.53;100.00
64602;BME280;68371;42.630;23.192;2024-03-08T01:26:44;92237.09;;;3.55;100.00
64602;BME280;68371;42.630;23.192;2024-03-08T01:29:12;92228.97;;;3.34;100.00
64602;BME280;68371;42.630;23.192;2024-03-08T01:31:39;92239.91;;;3.45;100.00
64602;BME280;68371;42.630;23.192;2024-03-08T01:34:06;92228.66;;;3.50;100.00
64602;BME280;68371;42.630;23.192;2024-03-08T01:36:32;92227.09;;;3.49;100.00
64602;BME280;68371;42.630;23.192;2024-03-08T01:38:59;92223.88;;;3.43;100.00
64602;BME280;68371;42.630;23.192;2024-03-08T01:41:27;92230.78;;;3.48;100.00
64602;BME280;68371;42.630;23.192;2024-03-08T01:43:58;92217.59;;;3.44;100.00
64602;BME280;68371;42.630;23.192;2024-03-08T01:46:25;92228.69;;;3.36;100.00
64602;BME280;68371;42.630;23.192;2024-03-08T01:48:54;92217.63;;;3.30;100.00
64602;BME280;68371;42.630;23.192;2024-03-08T01:51:23;92225.81;;;3.37;100.00
64602;BME280;68371;42.630;23.192;2024-03-08T01:53:50;92227.97;;;3.44;100.00
64602;BME280;68371;42.630;23.192;2024-03-08T01:56:17;92217.88;;;3.42;100.00
64602;BME280;68371;42.630;23.192;2024-03-08T01:58:44;92220.56;;;3.29;100.00
64602;BME280;68371;42.630;23.192;2024-03-08T02:01:13;92217.38;;;3.18;100.00
64602;BME280;68371;42.630;23.192;2024-03-08T02:03:41;92219.34;;;3.12;100.00
64602;BME280;68371;42.630;23.192;2024-03-08T02:06:09;92220.47;;;3.20;100.00
64602;BME280;68371;42.630;23.192;2024-03-08T02:08:36;92220.56;;;3.29;100.00
64602;BME280;68371;42.630;23.192;2024-03-08T02:11:04;92213.81;;;3.28;100.00
64602;BME280;68371;42.630;23.192;2024-03-08T02:13:31;92209.38;;;3.28;100.00
64602;BME280;68371;42.630;23.192;2024-03-08T02:16:00;92220.41;;;3.34;100.00
64602;BME280;68371;42.630;23.192;2024-03-08T02:18:31;92216.41;;;3.28;100.00
64602;BME280;68371;42.630;23.192;2024-03-08T02:21:02;92220.41;;;3.34;100.00
64602;BME280;68371;42.630;23.192;2024-03-08T02:23:29;92214.94;;;3.35;100.00
64602;BME280;68371;42.630;23.192;2024-03-08T02:25:57;92193.16;;;3.23;100.00
64602;BME280;68371;42.630;23.192;2024-03-08T02:28:24;92213.94;;;3.23;100.00
64602;BME280;68371;42.630;23.192;2024-03-08T02:30:53;92222.34;;;3.28;100.00
64602;BME280;68371;42.630;23.192;2024-03-08T02:33:21;92218.13;;;3.32;100.00
64602;BME280;68371;42.630;23.192;2024-03-08T02:35:49;92218.47;;;3.17;100.00
64602;BME280;68371;42.630;23.192;2024-03-08T02:38:18;92217.63;;;3.08;100.00
64602;BME280;68371;42.630;23.192;2024-03-08T02:40:45;92213.97;;;3.09;100.00
64602;BME280;68371;42.630;23.192;2024-03-08T02:43:14;92209.13;;;3.16;100.00
64602;BME280;68371;42.630;23.192;2024-03-08T02:45:41;92212.06;;;3.00;100.00
64602;BME280;68371;42.630;23.192;2024-03-08T02:48:09;92215.53;;;2.96;100.00
64602;BME280;68371;42.630;23.192;2024-03-08T02:50:37;92213.03;;;3.05;100.00
64602;BME280;68371;42.630;23.192;2024-03-08T02:53:05;92213.88;;;3.00;100.00
64602;BME280;68371;42.630;23.192;2024-03-08T02:55:33;92218.09;;;3.10;100.00
64602;BME280;68371;42.630;23.192;2024-03-08T02:58:01;92225.13;;;3.09;100.00
64602;BME280;68371;42.630;23.192;2024-03-08T03:00:28;92223.59;;;3.08;100.00
64602;BME280;68371;42.630;23.192;2024-03-08T03:02:56;92207.25;;;2.94;100.00
64602;BME280;68371;42.630;23.192;2024-03-08T03:05:24;92219.81;;;3.14;100.00
64602;BME280;68371;42.630;23.192;2024-03-08T03:07:51;92228.25;;;3.20;100.00
64602;BME280;68371;42.630;23.192;2024-03-08T03:10:18;92226.66;;;3.10;100.00
64602;BME280;68371;42.630;23.192;2024-03-08T03:12:48;92209.75;;;2.99;100.00
64602;BME280;68371;42.630;23.192;2024-03-08T03:15:15;92232.88;;;3.23;100.00
64602;BME280;68371;42.630;23.192;2024-03-08T03:17:45;92210.25;;;3.01;100.00
64602;BME280;68371;42.630;23.192;2024-03-08T03:20:13;92230.88;;;3.06;100.00
64602;BME280;68371;42.630;23.192;2024-03-08T03:22:40;92213.31;;;3.03;100.00
64602;BME280;68371;42.630;23.192;2024-03-08T03:25:07;92235.94;;;3.25;100.00
64602;BME280;68371;42.630;23.192;2024-03-08T03:27:35;92239.00;;;3.27;100.00
64602;BME280;68371;42.630;23.192;2024-03-08T03:30:05;92247.09;;;3.26;100.00
64602;BME280;68371;42.630;23.192;2024-03-08T03:32:46;92242.50;;;3.23;100.00
64602;BME280;68371;42.630;23.192;2024-03-08T03:35:13;92245.84;;;3.23;100.00
64602;BME280;68371;42.630;23.192;2024-03-08T03:37:41;92242.09;;;3.29;100.00
64602;BME280;68371;42.630;23.192;2024-03-08T03:40:11;92246.53;;;3.15;100.00
64602;BME280;68371;42.630;23.192;2024-03-08T03:42:38;92249.34;;;3.05;100.00
64602;BME280;68371;42.630;23.192;2024-03-08T03:45:07;92256.75;;;3.11;100.00
64602;BME280;68371;42.630;23.192;2024-03-08T03:47:35;92256.28;;;2.95;98.45
64602;BME280;68371;42.630;23.192;2024-03-08T03:50:04;92255.59;;;2.90;98.66
64602;BME280;68371;42.630;23.192;2024-03-08T03:52:31;92256.88;;;2.92;98.83
64602;BME280;68371;42.630;23.192;2024-03-08T03:54:58;92256.06;;;3.06;98.75
64602;BME280;68371;42.630;23.192;2024-03-08T03:57:26;92245.28;;;2.76;97.88
64602;BME280;68371;42.630;23.192;2024-03-08T03:59:53;92270.41;;;2.89;98.54
64602;BME280;68371;42.630;23.192;2024-03-08T04:02:21;92269.94;;;3.01;98.50
64602;BME280;68371;42.630;23.192;2024-03-08T04:04:48;92269.91;;;3.15;98.44
64602;BME280;68371;42.630;23.192;2024-03-08T04:07:15;92271.91;;;3.18;99.44
64602;BME280;68371;42.630;23.192;2024-03-08T04:09:40;92280.06;;;3.25;98.64
64602;BME280;68371;42.630;23.192;2024-03-08T04:12:07;92283.72;;;3.24;98.24
64602;BME280;68371;42.630;23.192;2024-03-08T04:14:35;92269.50;;;3.21;97.91
64602;BME280;68371;42.630;23.192;2024-03-08T04:17:02;92265.69;;;3.05;97.51
64602;BME280;68371;42.630;23.192;2024-03-08T04:19:31;92275.31;;;3.05;98.64
64602;BME280;68371;42.630;23.192;2024-03-08T04:21:59;92269.94;;;3.01;98.69
64602;BME280;68371;42.630;23.192;2024-03-08T04:24:28;92280.69;;;3.08;98.71
64602;BME280;68371;42.630;23.192;2024-03-08T04:26:57;92289.50;;;3.21;98.16
64602;BME280;68371;42.630;23.192;2024-03-08T04:29:24;92294.59;;;3.26;96.11
64602;BME280;68371;42.630;23.192;2024-03-08T04:31:51;92295.75;;;3.20;96.10
64602;BME280;68371;42.630;23.192;2024-03-08T04:34:19;92297.50;;;3.11;95.82
64602;BME280;68371;42.630;23.192;2024-03-08T04:36:47;92298.81;;;3.22;95.93
64602;BME280;68371;42.630;23.192;2024-03-08T04:39:14;92308.16;;;3.23;96.17
64602;BME280;68371;42.630;23.192;2024-03-08T04:41:41;92306.91;;;3.20;95.71
64602;BME280;68371;42.630;23.192;2024-03-08T04:44:09;92313.16;;;3.06;96.55
64602;BME280;68371;42.630;23.192;2024-03-08T04:46:36;92312.41;;;3.05;96.58
64602;BME280;68371;42.630;23.192;2024-03-08T04:49:03;92299.91;;;3.07;96.91
64602;BME280;68371;42.630;23.192;2024-03-08T04:51:30;92309.69;;;3.24;96.86
64602;BME280;68371;42.630;23.192;2024-03-08T04:53:58;92307.00;;;3.29;96.41
64602;BME280;68371;42.630;23.192;2024-03-08T04:56:25;92303.81;;;3.32;97.15
64602;BME280;68371;42.630;23.192;2024-03-08T04:58:51;92301.03;;;3.29;97.11
64602;BME280;68371;42.630;23.192;2024-03-08T05:01:18;92279.63;;;3.09;97.46
64602;BME280;68371;42.630;23.192;2024-03-08T05:03:45;92302.75;;;3.33;97.50
64602;BME280;68371;42.630;23.192;2024-03-08T05:06:15;92304.53;;;3.10;98.01
64602;BME280;68371;42.630;23.192;2024-03-08T05:08:42;92277.31;;;2.94;98.79
64602;BME280;68371;42.630;23.192;2024-03-08T05:11:10;92294.25;;;3.05;98.34
64602;BME280;68371;42.630;23.192;2024-03-08T05:13:39;92317.59;;;3.05;99.29
64602;BME280;68371;42.630;23.192;2024-03-08T05:16:06;92312.69;;;3.04;99.66
64602;BME280;68371;42.630;23.192;2024-03-08T05:18:34;92314.44;;;2.94;99.29
64602;BME280;68371;42.630;23.192;2024-03-08T05:21:01;92319.81;;;2.98;98.88
64602;BME280;68371;42.630;23.192;2024-03-08T05:23:30;92331.53;;;2.95;99.17
64602;BME280;68371;42.630;23.192;2024-03-08T05:25:56;92334.31;;;2.85;98.99
64602;BME280;68371;42.630;23.192;2024-03-08T05:28:25;92324.91;;;2.89;99.54
64602;BME280;68371;42.630;23.192;2024-03-08T05:30:51;92343.28;;;2.93;99.65
64602;BME280;68371;42.630;23.192;2024-03-08T05:33:18;92340.88;;;2.83;100.00
64602;BME280;68371;42.630;23.192;2024-03-08T05:35:45;92348.66;;;2.83;100.00
64602;BME280;68371;42.630;23.192;2024-03-08T05:38:12;92348.38;;;2.84;100.00
64602;BME280;68371;42.630;23.192;2024-03-08T05:40:38;92299.13;;;2.51;100.00
64602;BME280;68371;42.630;23.192;2024-03-08T05:43:06;92358.13;;;2.73;100.00
64602;BME280;68371;42.630;23.192;2024-03-08T05:45:35;92346.91;;;2.64;100.00
64602;BME280;68371;42.630;23.192;2024-03-08T05:48:02;92365.91;;;2.59;100.00
64602;BME280;68371;42.630;23.192;2024-03-08T05:50:31;92373.31;;;2.52;100.00
64602;BME280;68371;42.630;23.192;2024-03-08T05:52:58;92368.00;;;2.57;100.00
64602;BME280;68371;42.630;23.192;2024-03-08T05:55:24;92367.94;;;2.63;100.00
64602;BME280;68371;42.630;23.192;2024-03-08T05:57:51;92372.94;;;2.73;100.00
64602;BME280;68371;42.630;23.192;2024-03-08T06:00:20;92369.66;;;2.67;100.00
64602;BME280;68371;42.630;23.192;2024-03-08T06:02:49;92379.66;;;2.60;100.00
64602;BME280;68371;42.630;23.192;2024-03-08T06:05:15;92384.25;;;2.63;100.00
64602;BME280;68371;42.630;23.192;2024-03-08T06:07:42;92391.09;;;2.73;100.00
64602;BME280;68371;42.630;23.192;2024-03-08T06:10:09;92387.13;;;2.61;100.00
64602;BME280;68371;42.630;23.192;2024-03-08T06:12:38;92391.31;;;2.76;100.00
64602;BME280;68371;42.630;23.192;2024-03-08T06:15:10;92376.53;;;2.44;100.00
64602;BME280;68371;42.630;23.192;2024-03-08T06:17:39;92389.25;;;2.59;100.00
64602;BME280;68371;42.630;23.192;2024-03-08T06:20:09;92388.00;;;2.57;100.00
64602;BME280;68371;42.630;23.192;2024-03-08T06:22:38;92396.06;;;2.55;100.00
64602;BME280;68371;42.630;23.192;2024-03-08T06:25:08;92398.09;;;2.58;100.00
64602;BME280;68371;42.630;23.192;2024-03-08T06:27:35;92396.41;;;2.68;100.00
64602;BME280;68371;42.630;23.192;2024-03-08T06:30:05;92395.00;;;2.56;100.00
64602;BME280;68371;42.630;23.192;2024-03-08T06:32:34;92398.06;;;2.45;100.00
64602;BME280;68371;42.630;23.192;2024-03-08T06:35:04;92391.16;;;2.54;100.00
64602;BME280;68371;42.630;23.192;2024-03-08T06:37:33;92395.25;;;2.41;100.00
64602;BME280;68371;42.630;23.192;2024-03-08T06:40:00;92394.03;;;2.52;100.00
64602;BME280;68371;42.630;23.192;2024-03-08T06:42:27;92402.47;;;2.44;100.00
64602;BME280;68371;42.630;23.192;2024-03-08T06:44:54;92398.81;;;2.45;100.00
64602;BME280;68371;42.630;23.192;2024-03-08T06:47:25;92398.81;;;2.45;100.00
64602;BME280;68371;42.630;23.192;2024-03-08T06:49:52;92406.63;;;2.59;100.00
64602;BME280;68371;42.630;23.192;2024-03-08T06:52:18;92404.91;;;2.54;100.00
64602;BME280;68371;42.630;23.192;2024-03-08T06:54:46;92370.13;;;2.42;100.00
64602;BME280;68371;42.630;23.192;2024-03-08T06:57:13;92410.47;;;2.61;100.00
64602;BME280;68371;42.630;23.192;2024-03-08T06:59:42;92413.69;;;2.72;100.00
64602;BME280;68371;42.630;23.192;2024-03-08T07:02:09;92411.47;;;2.66;100.00
64602;BME280;68371;42.630;23.192;2024-03-08T07:04:36;92415.38;;;2.63;100.00
64602;BME280;68371;42.630;23.192;2024-03-08T07:07:06;92400.19;;;2.56;100.00
64602;BME280;68371;42.630;23.192;2024-03-08T07:09:35;92409.53;;;2.71;100.00
64602;BME280;68371;42.630;23.192;2024-03-08T07:12:04;92359.81;;;2.36;100.00
64602;BME280;68371;42.630;23.192;2024-03-08T07:14:30;92406.47;;;2.69;100.00
64602;BME280;68371;42.630;23.192;2024-03-08T07:16:57;92411.09;;;2.72;100.00
64602;BME280;68371;42.630;23.192;2024-03-08T07:19:24;92416.56;;;2.71;100.00
64602;BME280;68371;42.630;23.192;2024-03-08T07:21:50;92397.50;;;2.61;100.00
64602;BME280;68371;42.630;23.192;2024-03-08T07:24:17;92423.50;;;2.89;100.00
64602;BME280;68371;42.630;23.192;2024-03-08T07:27:07;92402.91;;;2.65;100.00
64602;BME280;68371;42.630;23.192;2024-03-08T07:29:34;92417.31;;;2.71;100.00
64602;BME280;68371;42.630;23.192;2024-03-08T07:32:00;92411.56;;;2.74;100.00
64602;BME280;68371;42.630;23.192;2024-03-08T07:34:38;92400.44;;;2.74;100.00
64602;BME280;68371;42.630;23.192;2024-03-08T07:37:06;92421.88;;;2.93;100.00
64602;BME280;68371;42.630;23.192;2024-03-08T07:39:37;92424.69;;;2.97;100.00
64602;BME280;68371;42.630;23.192;2024-03-08T07:42:06;92424.41;;;2.98;100.00
64602;BME280;68371;42.630;23.192;2024-03-08T07:44:33;92417.38;;;2.99;100.00
64602;BME280;68371;42.630;23.192;2024-03-08T07:47:00;92427.66;;;3.04;100.00
64602;BME280;68371;42.630;23.192;2024-03-08T07:49:26;92417.75;;;3.06;100.00
64602;BME280;68371;42.630;23.192;2024-03-08T07:51:53;92422.31;;;3.14;100.00
64602;BME280;68371;42.630;23.192;2024-03-08T07:54:20;92405.16;;;2.99;100.00
64602;BME280;68371;42.630;23.192;2024-03-08T07:56:47;92428.25;;;3.15;100.00
64602;BME280;68371;42.630;23.192;2024-03-08T07:59:15;92429.03;;;3.15;100.00
64602;BME280;68371;42.630;23.192;2024-03-08T08:01:44;92419.22;;;3.12;100.00
64602;BME280;68371;42.630;23.192;2024-03-08T08:04:13;92429.78;;;3.30;100.00
64602;BME280;68371;42.630;23.192;2024-03-08T08:06:40;92419.31;;;3.35;100.00
64602;BME280;68371;42.630;23.192;2024-03-08T08:09:08;92425.06;;;3.18;100.00
64602;BME280;68371;42.630;23.192;2024-03-08T08:11:39;92430.66;;;3.25;100.00
64602;BME280;68371;42.630;23.192;2024-03-08T08:14:08;92430.06;;;3.42;100.00
64602;BME280;68371;42.630;23.192;2024-03-08T08:16:37;92441.34;;;3.51;100.00
64602;BME280;68371;42.630;23.192;2024-03-08T08:19:06;92409.09;;;3.38;99.07
64602;BME280;68371;42.630;23.192;2024-03-08T08:21:34;92438.06;;;3.59;98.90
64602;BME280;68371;42.630;23.192;2024-03-08T08:24:02;92436.03;;;3.56;98.98
64602;BME280;68371;42.630;23.192;2024-03-08T08:26:29;92429.09;;;3.66;97.81
64602;BME280;68371;42.630;23.192;2024-03-08T08:28:56;92427.00;;;3.68;99.22
64602;BME280;68371;42.630;23.192;2024-03-08T08:31:23;92423.84;;;3.93;99.53
64602;BME280;68371;42.630;23.192;2024-03-08T08:33:51;92423.81;;;4.07;99.97
64602;BME280;68371;42.630;23.192;2024-03-08T08:36:23;92418.84;;;4.19;100.00
64602;BME280;68371;42.630;23.192;2024-03-08T08:38:50;92414.50;;;4.51;98.83
64602;BME280;68371;42.630;23.192;2024-03-08T08:41:19;92408.00;;;4.63;98.46
64602;BME280;68371;42.630;23.192;2024-03-08T08:43:47;92418.72;;;4.92;96.90
64602;BME280;68371;42.630;23.192;2024-03-08T08:46:17;92423.50;;;4.99;94.67
64602;BME280;68371;42.630;23.192;2024-03-08T08:48:45;92421.38;;;5.01;93.42
64602;BME280;68371;42.630;23.192;2024-03-08T08:51:17;92407.88;;;4.99;92.11
64602;BME280;68371;42.630;23.192;2024-03-08T08:53:45;92413.50;;;4.92;91.82
64602;BME280;68371;42.630;23.192;2024-03-08T08:56:13;92424.47;;;4.80;90.87
64602;BME280;68371;42.630;23.192;2024-03-08T08:58:42;92419.88;;;4.77;91.80
64602;BME280;68371;42.630;23.192;2024-03-08T09:01:12;92421.63;;;4.91;92.70
64602;BME280;68371;42.630;23.192;2024-03-08T09:03:38;92420.13;;;4.98;91.79
64602;BME280;68371;42.630;23.192;2024-03-08T09:06:06;92422.59;;;4.72;91.33
64602;BME280;68371;42.630;23.192;2024-03-08T09:08:36;92425.44;;;4.85;91.04
64602;BME280;68371;42.630;23.192;2024-03-08T09:11:03;92413.66;;;4.87;92.12
64602;BME280;68371;42.630;23.192;2024-03-08T09:13:30;92409.22;;;4.96;90.18
64602;BME280;68371;42.630;23.192;2024-03-08T09:15:57;92416.50;;;5.08;89.84
64602;BME280;68371;42.630;23.192;2024-03-08T09:18:24;92412.09;;;5.17;93.15
64602;BME280;68371;42.630;23.192;2024-03-08T09:20:50;92419.34;;;5.29;88.40
64602;BME280;68371;42.630;23.192;2024-03-08T09:23:19;92415.84;;;5.42;88.96
64602;BME280;68371;42.630;23.192;2024-03-08T09:25:50;92415.59;;;5.53;88.32
64602;BME280;68371;42.630;23.192;2024-03-08T09:28:17;92418.38;;;5.65;86.72
64602;BME280;68371;42.630;23.192;2024-03-08T09:30:46;92424.22;;;5.71;87.20
64602;BME280;68371;42.630;23.192;2024-03-08T09:33:13;92424.38;;;5.74;85.58
64602;BME280;68371;42.630;23.192;2024-03-08T09:35:44;92422.34;;;5.62;83.76
64602;BME280;68371;42.630;23.192;2024-03-08T09:38:13;92421.91;;;5.69;85.83
64602;BME280;68371;42.630;23.192;2024-03-08T09:40:41;92425.47;;;5.82;88.42
64602;BME280;68371;42.630;23.192;2024-03-08T09:43:10;92410.56;;;5.65;84.13
64602;BME280;68371;42.630;23.192;2024-03-08T09:45:37;92420.22;;;5.73;83.83
64602;BME280;68371;42.630;23.192;2024-03-08T09:48:05;92422.66;;;5.61;81.45
64602;BME280;68371;42.630;23.192;2024-03-08T09:50:34;92416.81;;;5.55;80.80
64602;BME280;68371;42.630;23.192;2024-03-08T09:53:00;92418.94;;;5.53;81.86
64602;BME280;68371;42.630;23.192;2024-03-08T09:55:29;92431.75;;;5.90;85.05
64602;BME280;68371;42.630;23.192;2024-03-08T09:58:00;92425.34;;;5.96;82.09
64602;BME280;68371;42.630;23.192;2024-03-08T10:00:59;92422.44;;;5.97;82.62
64602;BME280;68371;42.630;23.192;2024-03-08T10:03:27;92427.63;;;5.89;80.25
64602;BME280;68371;42.630;23.192;2024-03-08T10:05:56;92428.84;;;5.91;80.85
64602;BME280;68371;42.630;23.192;2024-03-08T10:08:25;92429.84;;;5.55;78.81
64602;BME280;68371;42.630;23.192;2024-03-08T10:10:52;92428.34;;;5.63;79.63
64602;BME280;68371;42.630;23.192;2024-03-08T10:13:19;92434.34;;;5.81;82.45
64602;BME280;68371;42.630;23.192;2024-03-08T10:15:46;92422.44;;;5.97;79.38
64602;BME280;68371;42.630;23.192;2024-03-08T10:18:15;92427.53;;;6.20;78.81
64602;BME280;68371;42.630;23.192;2024-03-08T10:20:42;92424.63;;;6.39;81.45
64602;BME280;68371;42.630;23.192;2024-03-08T10:23:09;92424.00;;;6.25;76.70
64602;BME280;68371;42.630;23.192;2024-03-08T10:25:36;92436.28;;;6.33;77.84
64602;BME280;68371;42.630;23.192;2024-03-08T10:28:04;92428.91;;;6.44;78.24
64602;BME280;68371;42.630;23.192;2024-03-08T10:30:31;92414.78;;;6.45;74.91
64602;BME280;68371;42.630;23.192;2024-03-08T10:32:58;92428.47;;;6.59;74.57
64602;BME280;68371;42.630;23.192;2024-03-08T10:35:26;92425.09;;;6.41;76.36
64602;BME280;68371;42.630;23.192;2024-03-08T10:37:56;92412.63;;;6.47;76.57
64602;BME280;68371;42.630;23.192;2024-03-08T10:40:25;92422.28;;;6.64;74.83
64602;BME280;68371;42.630;23.192;2024-03-08T10:42:53;92408.00;;;6.70;73.42
64602;BME280;68371;42.630;23.192;2024-03-08T10:45:29;92419.63;;;6.98;73.81
64602;BME280;68371;42.630;23.192;2024-03-08T10:48:05;92396.41;;;7.06;76.45
64602;BME280;68371;42.630;23.192;2024-03-08T10:50:36;92387.53;;;7.28;76.61
64602;BME280;68371;42.630;23.192;2024-03-08T10:53:06;92408.03;;;7.55;70.43
64602;BME280;68371;42.630;23.192;2024-03-08T10:55:33;92405.56;;;7.59;69.36
64602;BME280;68371;42.630;23.192;2024-03-08T10:58:00;92402.81;;;7.55;69.66
64602;BME280;68371;42.630;23.192;2024-03-08T11:00:27;92400.47;;;7.62;70.21
64602;BME280;68371;42.630;23.192;2024-03-08T11:02:54;92396.16;;;7.88;71.98
64602;BME280;68371;42.630;23.192;2024-03-08T11:05:38;92389.22;;;8.13;67.87
64602;BME280;68371;42.630;23.192;2024-03-08T11:08:16;92381.56;;;8.08;68.97
64602;BME280;68371;42.630;23.192;2024-03-08T11:10:49;92379.13;;;8.23;67.76
64602;BME280;68371;42.630;23.192;2024-03-08T11:13:35;92365.78;;;8.37;67.97
64602;BME280;68371;42.630;23.192;2024-03-08T11:16:02;92371.84;;;8.50;69.64
64602;BME280;68371;42.630;23.192;2024-03-08T11:18:32;92357.00;;;8.00;67.98
64602;BME280;68371;42.630;23.192;2024-03-08T11:21:04;92370.06;;;8.21;68.11
64602;BME280;68371;42.630;23.192;2024-03-08T11:23:32;92357.09;;;8.25;67.27
64602;BME280;68371;42.630;23.192;2024-03-08T11:25:59;92367.94;;;8.56;65.74
64602;BME280;68371;42.630;23.192;2024-03-08T11:28:25;92354.09;;;8.56;63.44
64602;BME280;68371;42.630;23.192;2024-03-08T11:31:24;92371.28;;;8.78;64.40
64602;BME280;68371;42.630;23.192;2024-03-08T11:33:53;92369.34;;;8.99;64.04
64602;BME280;68371;42.630;23.192;2024-03-08T11:36:23;92367.41;;;9.09;62.23
64602;BME280;68371;42.630;23.192;2024-03-08T11:38:51;92368.28;;;9.00;62.44
64602;BME280;68371;42.630;23.192;2024-03-08T11:41:23;92351.22;;;8.82;64.10
64602;BME280;68371;42.630;23.192;2024-03-08T11:44:05;92363.38;;;9.23;65.21
64602;BME280;68371;42.630;23.192;2024-03-08T11:46:32;92370.81;;;9.34;63.72
64602;BME280;68371;42.630;23.192;2024-03-08T11:48:59;92367.63;;;9.53;62.90
64602;BME280;68371;42.630;23.192;2024-03-08T11:51:28;92359.00;;;9.65;61.35
64602;BME280;68371;42.630;23.192;2024-03-08T11:53:55;92360.56;;;9.53;60.77
64602;BME280;68371;42.630;23.192;2024-03-08T11:56:24;92317.63;;;9.46;62.31
64602;BME280;68371;42.630;23.192;2024-03-08T11:58:55;92359.56;;;9.70;59.70
64602;BME280;68371;42.630;23.192;2024-03-08T12:01:24;92358.03;;;9.81;60.31
64602;BME280;68371;42.630;23.192;2024-03-08T12:03:54;92357.66;;;9.83;56.29
64602;BME280;68371;42.630;23.192;2024-03-08T12:06:25;92327.22;;;9.66;59.73
64602;BME280;68371;42.630;23.192;2024-03-08T12:08:55;92348.59;;;9.93;59.07
64602;BME280;68371;42.630;23.192;2024-03-08T12:11:22;92347.38;;;9.90;59.42
64602;BME280;68371;42.630;23.192;2024-03-08T12:13:51;92349.78;;;9.95;59.62
64602;BME280;68371;42.630;23.192;2024-03-08T12:16:17;92358.66;;;9.78;58.22
64602;BME280;68371;42.630;23.192;2024-03-08T12:18:45;92352.19;;;10.00;60.59
64602;BME280;68371;42.630;23.192;2024-03-08T12:21:13;92346.97;;;10.29;59.70
64602;BME280;68371;42.630;23.192;2024-03-08T12:23:43;92351.13;;;10.58;60.01
64602;BME280;68371;42.630;23.192;2024-03-08T12:26:13;92347.91;;;10.49;56.97
64602;BME280;68371;42.630;23.192;2024-03-08T12:28:41;92318.69;;;10.50;58.74
64602;BME280;68371;42.630;23.192;2024-03-08T12:31:12;92352.25;;;10.57;56.63
64602;BME280;68371;42.630;23.192;2024-03-08T12:33:48;92337.28;;;10.45;58.32
64602;BME280;68371;42.630;23.192;2024-03-08T12:36:16;92338.81;;;10.90;59.87
64602;BME280;68371;42.630;23.192;2024-03-08T12:38:43;92342.63;;;10.77;57.71
64602;BME280;68371;42.630;23.192;2024-03-08T12:41:14;92345.53;;;11.19;57.85
64602;BME280;68371;42.630;23.192;2024-03-08T12:43:43;92320.59;;;11.13;56.86
64602;BME280;68371;42.630;23.192;2024-03-08T12:46:14;92338.56;;;11.27;56.50
64602;BME280;68371;42.630;23.192;2024-03-08T12:48:40;92342.47;;;11.33;54.12
64602;BME280;68371;42.630;23.192;2024-03-08T12:51:12;92338.25;;;10.97;52.68
64602;BME280;68371;42.630;23.192;2024-03-08T12:53:39;92330.69;;;11.11;54.09
64602;BME280;68371;42.630;23.192;2024-03-08T12:56:09;92336.22;;;10.62;54.12
64602;BME280;68371;42.630;23.192;2024-03-08T12:58:38;92303.41;;;10.28;55.94
64602;BME280;68371;42.630;23.192;2024-03-08T13:01:06;92329.53;;;10.08;55.81